createdAt,value
2018-07-03T00:00:49.443Z,50.20
2018-07-03T00:03:19.845Z,50.40
2018-07-03T00:05:50.238Z,51.00
2018-07-03T00:08:21.648Z,50.50
2018-07-03T00:10:52.450Z,50.60
2018-07-03T00:13:22.829Z,50.50
2018-07-03T00:15:53.594Z,50.50
2018-07-03T00:18:24.343Z,50.90
2018-07-03T00:20:55.605Z,51.10
2018-07-03T00:23:26.113Z,51.00
2018-07-03T00:25:56.360Z,51.80
2018-07-03T00:28:26.716Z,51.40
2018-07-03T00:30:57.188Z,51.30
2018-07-03T00:33:27.788Z,51.50
2018-07-03T00:35:58.227Z,52.10
2018-07-03T00:38:29.622Z,51.40
2018-07-03T00:43:29.938Z,51.60
2018-07-03T00:46:02.065Z,51.70
2018-07-03T00:48:32.357Z,53.80
2018-07-03T00:51:02.724Z,51.60
2018-07-03T00:53:33.193Z,51.50
2018-07-03T00:56:03.926Z,51.70
2018-07-03T00:58:34.249Z,51.90
2018-07-03T01:01:04.745Z,53.70
2018-07-03T01:03:35.479Z,52.10
2018-07-03T01:06:06.053Z,52.20
2018-07-03T01:08:36.468Z,52.20
2018-07-03T01:11:07.372Z,52.20
2018-07-03T01:13:37.866Z,52.40
2018-07-03T01:16:08.400Z,52.40
2018-07-03T01:18:39.283Z,52.50
2018-07-03T01:21:09.690Z,52.60
2018-07-03T01:23:40.382Z,52.80
2018-07-03T01:28:41.460Z,52.80
2018-07-03T01:31:11.908Z,51.70
2018-07-03T01:33:42.355Z,53.30
2018-07-03T01:36:13.345Z,53.40
2018-07-03T01:38:43.726Z,53.80
2018-07-03T01:41:14.316Z,53.40
2018-07-03T01:43:44.649Z,53.60
2018-07-03T01:46:14.956Z,53.50
2018-07-03T01:48:45.366Z,53.80
2018-07-03T01:51:16.126Z,53.90
2018-07-03T01:53:46.421Z,54.30
2018-07-03T01:56:16.907Z,54.20
2018-07-03T02:01:16.754Z,53.80
2018-07-03T02:03:47.082Z,53.40
2018-07-03T02:06:17.494Z,53.10
2018-07-03T02:08:47.779Z,53.50
2018-07-03T02:11:18.244Z,53.20
2018-07-03T02:13:49.050Z,53.30
2018-07-03T02:16:19.685Z,54.30
2018-07-03T02:18:50.017Z,53.70
2018-07-03T02:21:20.283Z,53.90
2018-07-03T02:23:50.797Z,53.70
2018-07-03T02:26:21.524Z,53.60
2018-07-03T02:28:52.096Z,53.60
2018-07-03T02:31:22.399Z,53.60
2018-07-03T02:33:52.839Z,54.30
2018-07-03T02:36:23.479Z,53.90
2018-07-03T02:41:23.332Z,53.70
2018-07-03T02:43:53.850Z,53.80
2018-07-03T02:46:24.147Z,53.80
2018-07-03T02:48:54.797Z,54.20
2018-07-03T02:51:25.562Z,54.90
2018-07-03T02:53:55.923Z,55.20
2018-07-03T02:56:26.382Z,55.20
2018-07-03T02:58:57.113Z,54.60
2018-07-03T03:01:27.471Z,54.40
2018-07-03T03:03:57.769Z,54.50
2018-07-03T03:06:28.082Z,54.50
2018-07-03T03:08:58.493Z,54.40
2018-07-03T03:11:28.779Z,54.60
2018-07-03T03:13:59.325Z,54.30
2018-07-03T03:16:29.623Z,54.30
2018-07-03T03:18:59.991Z,54.00
2018-07-03T03:21:31.589Z,53.80
2018-07-03T03:24:01.914Z,54.10
2018-07-03T03:26:32.188Z,54.30
2018-07-03T03:29:02.606Z,54.00
2018-07-03T03:31:32.956Z,54.10
2018-07-03T03:34:03.374Z,53.90
2018-07-03T03:36:33.740Z,54.10
2018-07-03T03:39:04.490Z,53.00
2018-07-03T03:41:34.890Z,52.80
2018-07-03T03:44:06.400Z,53.00
2018-07-03T03:46:37.033Z,53.20
2018-07-03T03:49:08.403Z,53.40
2018-07-03T03:51:39.352Z,53.40
2018-07-03T03:54:09.797Z,53.30
2018-07-03T03:56:40.124Z,53.10
2018-07-03T03:59:10.559Z,53.00
2018-07-03T04:01:41.082Z,50.60
2018-07-03T04:04:11.616Z,55.80
2018-07-03T04:06:42.099Z,53.10
2018-07-03T04:09:12.640Z,53.90
2018-07-03T04:11:42.843Z,53.60
2018-07-03T04:14:13.429Z,53.70
2018-07-03T04:16:43.726Z,54.20
2018-07-03T04:19:14.317Z,54.30
2018-07-03T04:21:45.266Z,54.40
2018-07-03T04:24:22.292Z,54.00
2018-07-03T04:26:52.609Z,53.30
2018-07-03T04:29:25.268Z,52.70
2018-07-03T04:31:56.561Z,52.40
2018-07-03T04:34:30.037Z,52.00
2018-07-03T04:37:00.658Z,51.60
2018-07-03T04:39:32.486Z,51.50
2018-07-03T04:42:02.742Z,51.40
2018-07-03T04:44:33.468Z,52.20
2018-07-03T04:47:03.874Z,50.60
2018-07-03T04:49:34.231Z,46.80
2018-07-03T04:52:04.627Z,43.10
2018-07-03T04:54:35.111Z,41.20
2018-07-03T04:57:05.609Z,39.60
2018-07-03T04:59:36.514Z,37.70
2018-07-03T05:02:07.010Z,37.10
2018-07-03T05:04:37.574Z,37.10
2018-07-03T05:07:08.726Z,38.50
2018-07-03T05:09:39.376Z,37.40
2018-07-03T05:14:42.336Z,36.90
2018-07-03T05:17:12.825Z,37.20
2018-07-03T05:19:43.818Z,36.80
2018-07-03T05:22:14.889Z,36.10
2018-07-03T05:24:46.759Z,35.30
2018-07-03T05:27:18.592Z,36.00
2018-07-03T05:29:49.727Z,36.60
2018-07-03T05:32:21.017Z,36.20
2018-07-03T05:34:52.124Z,34.90
2018-07-03T05:37:25.420Z,34.40
2018-07-03T05:39:55.971Z,34.50
2018-07-03T05:42:29.115Z,34.40
2018-07-03T05:45:01.086Z,35.00
2018-07-03T05:47:31.546Z,36.40
2018-07-03T05:50:06.390Z,35.50
2018-07-03T05:55:10.117Z,35.80
2018-07-03T05:57:40.521Z,33.50
2018-07-03T06:00:11.347Z,32.40
2018-07-03T06:02:41.812Z,31.70
2018-07-03T06:05:12.314Z,30.60
2018-07-03T06:07:43.237Z,30.30
2018-07-03T06:10:17.616Z,30.20
2018-07-03T06:12:49.445Z,29.80
2018-07-03T06:15:20.495Z,29.80
2018-07-03T06:17:50.915Z,29.70
2018-07-03T06:20:21.887Z,28.60
2018-07-03T06:22:54.662Z,28.90
2018-07-03T06:25:25.206Z,29.10
2018-07-03T06:27:57.435Z,28.80
2018-07-03T06:30:32.694Z,28.90
2018-07-03T06:33:03.372Z,29.10
2018-07-03T06:35:34.684Z,28.10
2018-07-03T06:38:06.294Z,29.20
2018-07-03T06:40:37.053Z,28.80
2018-07-03T06:43:07.713Z,30.20
2018-07-03T06:45:38.161Z,30.20
2018-07-03T06:48:20.034Z,30.40
2018-07-03T06:51:00.574Z,33.50
2018-07-03T06:53:38.854Z,35.00
2018-07-03T06:56:11.097Z,36.40
2018-07-03T06:58:43.345Z,37.30
2018-07-03T07:01:47.494Z,38.20
2018-07-03T07:04:18.934Z,38.80
2018-07-03T07:06:50.479Z,38.50
2018-07-03T07:09:21.722Z,38.60
2018-07-03T07:11:53.412Z,38.00
2018-07-03T07:14:28.362Z,39.10
2018-07-03T07:17:01.323Z,38.70
2018-07-03T07:19:35.441Z,36.70
2018-07-03T07:22:06.365Z,39.20
2018-07-03T07:24:39.173Z,38.20
2018-07-03T07:27:11.382Z,36.60
2018-07-03T07:29:44.352Z,36.60
2018-07-03T07:32:15.655Z,35.30
2018-07-03T07:34:46.820Z,34.00
2018-07-03T07:37:17.630Z,33.80
2018-07-03T07:39:49.259Z,34.10
2018-07-03T07:42:22.273Z,34.60
2018-07-03T07:44:54.018Z,35.00
2018-07-03T07:47:26.691Z,34.80
2018-07-03T07:49:58.523Z,34.70
2018-07-03T07:52:29.044Z,33.40
2018-07-03T07:55:01.992Z,33.60
2018-07-03T07:57:34.236Z,33.20
2018-07-03T08:00:07.744Z,34.00
2018-07-03T08:02:39.866Z,33.70
2018-07-03T08:05:12.300Z,35.00
2018-07-03T08:07:43.257Z,32.80
2018-07-03T08:10:14.122Z,32.20
2018-07-03T08:12:45.372Z,32.40
2018-07-03T08:15:16.517Z,32.20
2018-07-03T08:17:48.061Z,32.90
2018-07-03T08:20:21.646Z,31.50
2018-07-03T08:22:56.350Z,33.20
2018-07-03T08:25:29.125Z,31.60
2018-07-03T08:28:12.587Z,30.20
2018-07-03T08:35:46.386Z,30.00
2018-07-03T08:38:18.788Z,34.50
2018-07-03T08:40:52.926Z,31.50
2018-07-03T08:43:24.281Z,30.10
2018-07-03T08:45:57.637Z,30.00
2018-07-03T08:48:28.533Z,30.20
2018-07-03T08:50:59.602Z,31.60
2018-07-03T08:53:33.202Z,31.80
2018-07-03T08:56:07.720Z,32.00
2018-07-03T08:58:41.002Z,33.20
2018-07-03T09:01:12.749Z,31.90
2018-07-03T09:03:47.150Z,32.50
2018-07-03T09:06:18.266Z,32.80
2018-07-03T09:08:49.759Z,32.90
2018-07-03T09:11:21.401Z,32.80
2018-07-03T09:13:52.539Z,31.90
2018-07-03T09:16:24.219Z,33.50
2018-07-03T09:18:55.536Z,34.00
2018-07-03T09:21:26.251Z,32.30
2018-07-03T09:23:57.171Z,32.50
2018-07-03T09:26:28.432Z,30.80
2018-07-03T09:28:59.145Z,33.50
2018-07-03T09:31:32.300Z,32.80
2018-07-03T09:34:04.781Z,31.70
2018-07-03T09:36:47.906Z,31.70
2018-07-03T09:39:18.413Z,31.30
2018-07-03T09:41:49.300Z,30.50
2018-07-03T09:44:20.442Z,30.70
2018-07-03T09:46:54.000Z,33.20
2018-07-03T09:49:25.714Z,31.00
2018-07-03T09:51:59.546Z,31.40
2018-07-03T09:54:32.042Z,31.60
2018-07-03T09:57:05.344Z,31.90
2018-07-03T09:59:40.879Z,31.40
2018-07-03T10:02:17.089Z,29.80
2018-07-03T10:04:47.937Z,29.90
2018-07-03T10:07:19.253Z,31.30
2018-07-03T10:09:50.383Z,30.00
2018-07-03T10:12:23.511Z,29.40
2018-07-03T10:14:55.424Z,29.70
2018-07-03T10:17:27.998Z,29.50
2018-07-03T10:19:59.404Z,29.90
2018-07-03T10:22:34.793Z,29.30
2018-07-03T10:25:13.673Z,29.60
2018-07-03T10:27:44.762Z,29.50
2018-07-03T10:30:19.420Z,29.50
2018-07-03T10:32:56.489Z,29.50
2018-07-03T10:35:29.212Z,29.50
2018-07-03T10:38:04.382Z,29.20
2018-07-03T10:40:45.303Z,27.20
2018-07-03T10:43:17.322Z,29.70
2018-07-03T10:45:50.779Z,30.40
2018-07-03T10:48:30.456Z,29.90
2018-07-03T10:51:04.093Z,30.90
2018-07-03T10:53:37.691Z,29.80
2018-07-03T10:56:09.243Z,29.70
2018-07-03T10:58:43.497Z,30.00
2018-07-03T11:01:21.513Z,29.50
2018-07-03T11:03:57.828Z,30.10
2018-07-03T11:06:34.110Z,28.80
2018-07-03T11:09:13.081Z,28.40
2018-07-03T11:11:50.241Z,28.50
2018-07-03T11:14:34.342Z,29.00
2018-07-03T11:17:06.538Z,29.50
2018-07-03T11:19:50.525Z,29.80
2018-07-03T11:22:22.841Z,29.20
2018-07-03T11:24:56.045Z,28.90
2018-07-03T11:27:28.191Z,28.70
2018-07-03T11:30:00.226Z,28.80
2018-07-03T11:32:33.630Z,29.00
2018-07-03T11:35:14.168Z,29.20
2018-07-03T11:37:50.873Z,29.00
2018-07-03T11:40:22.988Z,28.60
2018-07-03T11:42:55.875Z,29.00
2018-07-03T11:45:35.066Z,29.70
2018-07-03T11:48:13.024Z,30.80
2018-07-03T11:50:44.100Z,28.90
2018-07-03T11:53:17.803Z,28.90
2018-07-03T11:55:54.905Z,28.80
2018-07-03T11:58:30.458Z,28.90
2018-07-03T12:01:03.424Z,28.90
2018-07-03T12:03:38.955Z,28.90
2018-07-03T12:06:11.146Z,28.90
2018-07-03T12:08:42.804Z,28.60
2018-07-03T12:11:13.995Z,28.40
2018-07-03T12:13:51.390Z,28.00
2018-07-03T12:16:28.132Z,28.80
2018-07-03T12:19:03.159Z,28.70
2018-07-03T12:21:34.376Z,28.70
2018-07-03T12:24:07.100Z,28.50
2018-07-03T12:26:59.624Z,28.70
2018-07-03T12:29:31.112Z,28.90
2018-07-03T12:32:01.671Z,28.20
2018-07-03T12:34:41.123Z,28.20
2018-07-03T12:37:13.479Z,28.20
2018-07-03T12:39:46.260Z,28.00
2018-07-03T12:42:22.925Z,27.50
2018-07-03T12:44:53.538Z,27.00
2018-07-03T12:47:26.265Z,26.60
2018-07-03T12:50:03.374Z,26.80
2018-07-03T12:53:06.110Z,26.60
2018-07-03T12:55:38.430Z,26.90
2018-07-03T12:58:12.047Z,27.40
2018-07-03T13:00:43.834Z,27.30
2018-07-03T13:03:15.882Z,27.30
2018-07-03T13:05:54.833Z,27.60
2018-07-03T13:08:32.840Z,27.10
2018-07-03T13:11:10.261Z,27.80
2018-07-03T13:13:44.283Z,28.40
2018-07-03T13:16:18.791Z,28.40
2018-07-03T13:18:52.386Z,27.90
2018-07-03T13:24:31.243Z,27.70
2018-07-03T13:27:06.611Z,28.30
2018-07-03T13:29:38.946Z,27.70
2018-07-03T13:32:11.190Z,27.50
2018-07-03T13:34:45.086Z,27.40
2018-07-03T13:37:18.031Z,28.10
2018-07-03T13:39:53.823Z,27.90
2018-07-03T13:42:26.347Z,28.00
2018-07-03T13:45:02.186Z,27.90
2018-07-03T13:47:33.742Z,27.20
2018-07-03T13:50:05.626Z,27.20
2018-07-03T13:52:38.001Z,27.30
2018-07-03T13:55:09.267Z,27.20
2018-07-03T13:57:40.439Z,27.10
2018-07-03T14:00:11.965Z,27.20
2018-07-03T14:02:45.088Z,27.50
2018-07-03T14:05:16.779Z,27.00
2018-07-03T14:10:21.087Z,27.60
2018-07-03T14:15:23.550Z,27.60
2018-07-03T14:17:56.819Z,27.80
2018-07-03T14:20:28.763Z,27.40
2018-07-03T14:25:39.204Z,27.20
2018-07-03T14:28:13.084Z,27.20
2018-07-03T14:33:21.086Z,27.10
2018-07-03T14:35:54.253Z,27.10
2018-07-03T14:38:26.216Z,28.20
2018-07-03T14:40:59.171Z,27.40
2018-07-03T14:43:31.681Z,27.10
2018-07-03T14:48:40.705Z,26.80
2018-07-03T14:51:13.147Z,27.20
2018-07-03T14:53:45.092Z,26.90
2018-07-03T14:56:16.439Z,26.70
2018-07-03T14:58:58.824Z,26.60
2018-07-03T15:01:30.756Z,26.50
2018-07-03T15:04:05.915Z,26.30
2018-07-03T15:06:50.376Z,27.00
2018-07-03T15:09:21.817Z,27.10
2018-07-03T15:14:27.771Z,27.60
2018-07-03T15:19:40.056Z,27.60
2018-07-03T15:22:16.229Z,27.70
2018-07-03T15:24:50.357Z,28.00
2018-07-03T15:27:22.970Z,28.20
2018-07-03T15:32:28.354Z,28.10
2018-07-03T15:35:00.760Z,27.30
2018-07-03T15:37:32.467Z,27.50
2018-07-03T15:42:35.414Z,27.20
2018-07-03T15:45:13.567Z,27.10
2018-07-03T15:47:44.717Z,27.60
2018-07-03T15:50:16.990Z,28.20
2018-07-03T15:55:21.617Z,28.30
2018-07-03T15:57:56.449Z,27.80
2018-07-03T16:00:27.191Z,28.00
2018-07-03T16:03:10.147Z,27.90
2018-07-03T16:05:50.877Z,27.50
2018-07-03T16:11:16.828Z,27.50
2018-07-03T16:13:48.866Z,28.10
2018-07-03T16:16:22.784Z,28.10
2018-07-03T16:18:58.667Z,27.10
2018-07-03T16:21:31.336Z,27.30
2018-07-03T16:29:12.691Z,28.00
2018-07-03T16:31:43.926Z,28.20
2018-07-03T16:34:14.741Z,27.90
2018-07-03T16:36:47.888Z,27.90
2018-07-03T16:39:20.001Z,27.90
2018-07-03T16:41:54.479Z,27.80
2018-07-03T16:44:25.489Z,27.60
2018-07-03T16:46:57.154Z,28.00
2018-07-03T16:49:29.363Z,27.90
2018-07-03T16:52:00.844Z,27.80
2018-07-03T16:54:39.480Z,27.80
2018-07-03T16:57:10.990Z,28.00
2018-07-03T16:59:41.657Z,27.80
2018-07-03T17:02:13.931Z,27.60
2018-07-03T17:04:47.754Z,27.70
2018-07-03T17:07:21.088Z,27.50
2018-07-03T17:09:54.147Z,27.70
2018-07-03T17:12:26.668Z,27.90
2018-07-03T17:14:57.420Z,27.60
2018-07-03T17:17:28.497Z,27.60
2018-07-03T17:20:05.850Z,28.10
2018-07-03T17:22:37.489Z,27.90
2018-07-03T17:25:12.231Z,28.30
2018-07-03T17:27:46.114Z,28.50
2018-07-03T17:30:24.302Z,27.80
2018-07-03T17:32:58.980Z,27.60
2018-07-03T17:35:31.097Z,27.90
2018-07-03T17:38:03.290Z,28.30
2018-07-03T17:40:48.407Z,28.50
2018-07-03T17:43:32.102Z,28.50
2018-07-03T17:46:09.225Z,28.60
2018-07-03T17:48:40.607Z,28.40
2018-07-03T17:51:14.120Z,28.70
2018-07-03T17:56:26.948Z,28.50
2018-07-03T17:59:00.589Z,29.20
2018-07-03T18:01:36.250Z,30.30
2018-07-03T18:04:08.079Z,31.10
2018-07-03T18:06:39.958Z,31.70
2018-07-03T18:09:15.518Z,32.00
2018-07-03T18:11:47.181Z,32.40
2018-07-03T18:14:21.643Z,33.20
2018-07-03T18:16:52.482Z,33.30
2018-07-03T18:19:28.233Z,33.70
2018-07-03T18:21:59.973Z,34.00
2018-07-03T18:24:31.667Z,33.70
2018-07-03T18:27:06.269Z,34.00
2018-07-03T18:29:40.095Z,34.40
2018-07-03T18:32:13.659Z,34.30
2018-07-03T18:34:47.452Z,34.70
2018-07-03T18:37:20.097Z,34.90
2018-07-03T18:39:51.353Z,35.50
2018-07-03T18:42:27.123Z,36.10
2018-07-03T18:44:58.359Z,36.60
2018-07-03T18:47:30.553Z,37.30
2018-07-03T18:50:04.418Z,36.60
2018-07-03T18:52:39.618Z,36.90
2018-07-03T18:55:12.743Z,36.70
2018-07-03T18:57:45.084Z,36.80
2018-07-03T19:00:16.456Z,39.20
2018-07-03T19:02:49.222Z,37.20
2018-07-03T19:05:20.769Z,36.80
2018-07-03T19:07:56.041Z,37.00
2018-07-03T19:10:28.233Z,36.80
2018-07-03T19:12:59.630Z,36.50
2018-07-03T19:15:34.360Z,37.70
2018-07-03T19:18:06.327Z,37.80
2018-07-03T19:20:39.106Z,38.20
2018-07-03T19:23:10.518Z,38.30
2018-07-03T19:25:41.764Z,38.30
2018-07-03T19:28:13.794Z,38.30
2018-07-03T19:30:49.228Z,38.40
2018-07-03T19:33:21.390Z,38.70
2018-07-03T19:35:55.095Z,38.90
2018-07-03T19:38:26.788Z,39.20
2018-07-03T19:40:57.232Z,39.50
2018-07-03T19:43:29.262Z,39.70
2018-07-03T19:46:03.825Z,39.90
2018-07-03T19:48:40.410Z,40.10
2018-07-03T19:51:12.701Z,40.70
2018-07-03T19:53:43.483Z,41.00
2018-07-03T19:56:16.376Z,41.40
2018-07-03T19:58:52.833Z,42.40
2018-07-03T20:01:27.736Z,41.80
2018-07-03T20:04:01.504Z,42.20
2018-07-03T20:06:33.585Z,42.60
2018-07-03T20:09:08.313Z,42.90
2018-07-03T20:11:42.259Z,43.30
2018-07-03T20:14:16.876Z,43.60
2018-07-03T20:16:49.717Z,43.90
2018-07-03T20:19:21.356Z,44.20
2018-07-03T20:21:52.594Z,44.30
2018-07-03T20:24:24.423Z,44.40
2018-07-03T20:26:55.378Z,44.40
2018-07-03T20:29:27.970Z,44.40
2018-07-03T20:31:59.059Z,44.70
2018-07-03T20:34:29.715Z,44.90
2018-07-03T20:37:03.341Z,45.20
2018-07-03T20:39:36.778Z,45.50
2018-07-03T20:42:08.738Z,45.60
2018-07-03T20:44:39.570Z,46.00
2018-07-03T20:47:09.903Z,46.60
2018-07-03T20:49:41.753Z,46.00
2018-07-03T20:52:15.887Z,46.50
2018-07-03T20:54:47.237Z,46.10
2018-07-03T20:57:21.124Z,46.00
2018-07-03T20:59:56.360Z,46.20
2018-07-03T21:02:32.930Z,46.50
2018-07-03T21:05:07.188Z,46.40
2018-07-03T21:07:40.763Z,46.80
2018-07-03T21:10:13.420Z,44.40
2018-07-03T21:12:45.354Z,46.80
2018-07-03T21:15:23.354Z,47.00
2018-07-03T21:18:05.801Z,47.30
2018-07-03T21:20:37.687Z,47.40
2018-07-03T21:23:16.463Z,47.80
2018-07-03T21:25:51.129Z,48.20
2018-07-03T21:28:26.571Z,48.30
2018-07-03T21:30:59.493Z,48.80
2018-07-03T21:33:34.115Z,48.80
2018-07-03T21:36:07.272Z,48.10
2018-07-03T21:38:46.914Z,48.60
2018-07-03T21:41:18.419Z,48.40
2018-07-03T21:43:49.408Z,48.40
2018-07-03T21:46:20.226Z,46.60
2018-07-03T21:48:53.200Z,48.80
2018-07-03T21:51:25.657Z,48.90
2018-07-03T21:53:58.726Z,49.90
2018-07-03T21:56:36.234Z,49.00
2018-07-03T21:59:09.732Z,49.10
2018-07-03T22:01:44.146Z,49.30
2018-07-03T22:04:16.412Z,49.20
2018-07-03T22:06:48.509Z,49.40
2018-07-03T22:09:20.123Z,49.60
2018-07-03T22:11:53.089Z,50.00
2018-07-03T22:14:23.719Z,49.80
2018-07-03T22:16:55.256Z,51.40
2018-07-03T22:19:26.871Z,49.70
2018-07-03T22:21:58.225Z,49.60
2018-07-03T22:24:29.222Z,49.60
2018-07-03T22:27:00.296Z,49.60
2018-07-03T22:29:32.088Z,50.00
2018-07-03T22:32:03.137Z,50.30
2018-07-03T22:34:33.526Z,50.50
2018-07-03T22:37:08.351Z,50.60
2018-07-03T22:39:38.776Z,50.70
2018-07-03T22:42:10.236Z,50.60
2018-07-03T22:44:41.916Z,50.90
2018-07-03T22:47:14.075Z,51.40
2018-07-03T22:49:44.946Z,51.20
2018-07-03T22:52:16.707Z,51.00
2018-07-03T22:54:47.790Z,51.10
2018-07-03T22:57:20.093Z,50.80
2018-07-03T22:59:51.099Z,50.70
2018-07-03T23:02:22.695Z,50.50
2018-07-03T23:04:53.775Z,50.20
2018-07-03T23:07:27.144Z,49.60
2018-07-03T23:09:58.561Z,50.10
2018-07-03T23:12:29.452Z,50.00
2018-07-03T23:15:01.922Z,49.70
2018-07-03T23:17:33.433Z,49.60
2018-07-03T23:20:05.709Z,49.60
2018-07-03T23:22:36.331Z,49.40
2018-07-03T23:25:06.986Z,49.50
2018-07-03T23:27:38.266Z,49.60
2018-07-03T23:30:10.993Z,49.20
2018-07-03T23:32:41.782Z,50.20
2018-07-03T23:35:12.579Z,49.80
2018-07-03T23:37:43.394Z,48.70
2018-07-03T23:40:13.902Z,50.30
2018-07-03T23:42:45.668Z,50.30
2018-07-03T23:45:16.049Z,50.50
2018-07-03T23:47:56.673Z,50.10
2018-07-03T23:50:37.982Z,50.60
2018-07-03T23:53:18.799Z,50.50
2018-07-03T23:56:00.540Z,50.30
2018-07-03T23:58:41.585Z,50.30
